Time;durP1;ratioP1;P1;durP2;ratioP2;P2;SDS_P1;SDS_P2;PMS_P1;PMS_P2;Temp;Humidity;BMP_temperature;BMP_pressure;BME280_temperature;BME280_humidity;BME280_pressure;Samples;Min_cycle;Max_cycle;Signal;HPM_P1;HPM_P2
2021/12/27 00:02:11;;;;;;;33.17;18.73;;;0.90;99.90;0.70;96074.00;;;;5044823;28;20465;-76
2021/12/27 00:05:24;;;;;;;34.00;18.43;;;0.90;99.90;0.60;96076.00;;;;5047399;28;20439;-75
2021/12/27 00:08:39;;;;;;;32.73;18.07;;;0.90;99.90;0.60;96076.00;;;;5048046;28;20439;-76
2021/12/27 00:11:52;;;;;;;27.73;17.37;;;0.90;99.90;0.60;96074.00;;;;5046590;28;20451;-76
2021/12/27 00:15:06;;;;;;;32.73;17.57;;;0.90;99.90;0.70;96076.00;;;;5046069;28;20469;-75
2021/12/27 00:18:19;;;;;;;32.13;19.13;;;-0.40;99.90;0.70;96069.00;;;;5048445;28;20557;-76
2021/12/27 00:21:34;;;;;;;33.17;18.20;;;0.90;99.90;0.70;96071.00;;;;5043616;28;20452;-76
2021/12/27 00:24:47;;;;;;;35.93;19.90;;;0.90;99.90;0.70;96072.00;;;;5042561;28;20530;-76
2021/12/27 00:28:00;;;;;;;32.57;18.00;;;0.90;99.90;0.70;96065.00;;;;5045338;28;20815;-76
2021/12/27 00:31:13;;;;;;;32.07;18.50;;;0.90;99.90;0.60;96065.00;;;;5048061;28;20451;-75
2021/12/27 00:34:26;;;;;;;29.50;18.90;;;0.90;99.90;0.70;96064.00;;;;5046791;28;20812;-76
2021/12/27 00:37:41;;;;;;;30.43;17.47;;;0.90;99.90;0.60;96067.00;;;;5043900;28;20431;-76
2021/12/27 00:40:54;;;;;;;30.73;17.93;;;0.90;99.90;0.60;96075.00;;;;5043896;28;20463;-76
2021/12/27 00:44:07;;;;;;;36.87;18.40;;;0.90;99.90;0.60;96073.00;;;;5046501;28;20463;-76
2021/12/27 00:47:20;;;;;;;29.47;18.17;;;0.90;99.90;0.60;96072.00;;;;5044609;28;20427;-76
2021/12/27 00:50:34;;;;;;;31.03;19.57;;;0.80;99.90;0.70;96087.00;;;;5047347;28;20442;-75
2021/12/27 00:53:48;;;;;;;30.40;17.23;;;0.90;99.90;0.60;96087.00;;;;5046412;28;20655;-76
2021/12/27 00:57:01;;;;;;;30.47;16.43;;;0.90;99.90;0.70;96089.00;;;;5046412;28;20868;-76
2021/12/27 01:00:18;;;;;;;25.60;16.67;;;0.90;99.90;0.70;96078.00;;;;5047251;28;20519;-75
2021/12/27 01:03:30;;;;;;;33.37;17.20;;;0.90;99.90;0.70;96086.00;;;;5049327;28;20447;-76
2021/12/27 01:06:43;;;;;;;33.97;18.40;;;0.90;99.90;0.70;96093.00;;;;5046150;28;20465;-76
2021/12/27 01:10:09;;;;;;;36.93;18.07;;;0.90;99.90;0.70;96088.00;;;;5046556;28;20439;-76
2021/12/27 01:13:26;;;;;;;34.63;17.90;;;0.90;99.90;0.70;96096.00;;;;5046276;28;20431;-75
2021/12/27 01:16:39;;;;;;;30.17;17.97;;;0.90;99.90;0.70;96093.00;;;;5043661;28;20523;-76
2021/12/27 10:42:11;;;;;;;25.97;16.80;;;1.90;99.90;2.00;96009.00;;;;5014321;28;20931;-75
2021/12/27 10:45:04;;;;;;;26.67;15.07;;;2.00;99.90;2.10;96011.00;;;;5043284;28;20429;-75
2021/12/27 10:48:00;;;;;;;26.87;14.00;;;1.50;99.90;2.00;96009.00;;;;5032535;28;20481;-75
2021/12/27 10:51:02;;;;;;;26.70;15.80;;;2.10;99.90;2.10;95997.00;;;;5036142;28;20458;-75
2021/12/27 10:53:55;;;;;;;30.57;15.47;;;2.10;99.90;2.20;96019.00;;;;5043584;28;20508;-75
2021/12/27 10:56:53;;;;;;;25.73;14.83;;;2.10;99.90;2.20;96014.00;;;;5026886;28;20443;-76
2021/12/27 10:59:43;;;;;;;26.60;15.20;;;2.20;99.90;2.30;96004.00;;;;5039789;28;20780;-76
2021/12/27 11:02:34;;;;;;;25.33;14.90;;;2.20;99.90;2.30;95994.00;;;;5024448;28;20550;-74
2021/12/27 11:05:26;;;;;;;23.87;15.47;;;2.20;99.90;2.40;96005.00;;;;5009271;28;20846;-76
2021/12/27 11:08:16;;;;;;;25.00;14.23;;;2.30;99.90;2.30;96010.00;;;;5008669;28;20463;-75
2021/12/27 11:11:06;;;;;;;26.77;15.87;;;2.30;99.90;2.30;95996.00;;;;5017854;28;20464;-75
2021/12/27 11:13:57;;;;;;;22.37;13.80;;;2.30;99.90;2.40;95992.00;;;;5025213;28;20434;-76
2021/12/27 11:16:47;;;;;;;22.50;15.23;;;2.30;99.90;2.40;95982.00;;;;5038320;28;20435;-74
2021/12/27 11:19:36;;;;;;;20.47;12.43;;;2.40;99.90;2.40;96002.00;;;;5043829;28;20467;-77
2021/12/27 11:22:25;;;;;;;23.80;13.37;;;2.30;99.90;2.30;95992.00;;;;5044081;28;20444;-76
2021/12/27 11:25:31;;;;;;;23.73;14.47;;;2.40;99.90;2.30;95998.00;;;;5044664;28;20423;-75
2021/12/27 11:28:30;;;;;;;31.73;15.17;;;2.40;99.90;2.30;95996.00;;;;5045484;28;20419;-76
2021/12/27 11:31:28;;;;;;;37.63;16.43;;;2.40;99.90;2.20;95999.00;;;;5020052;28;20474;-76
2021/12/27 11:34:22;;;;;;;26.87;15.03;;;2.30;99.90;2.20;95991.00;;;;5020844;28;20447;-75
2021/12/27 11:37:12;;;;;;;27.33;14.37;;;2.30;99.90;2.20;95990.00;;;;5019298;28;20444;-75
2021/12/27 11:40:07;;;;;;;29.03;17.63;;;2.20;99.90;2.10;95986.00;;;;5017401;28;20467;-76
2021/12/27 11:42:59;;;;;;;32.03;16.70;;;2.20;99.90;2.10;95970.00;;;;5042158;28;20442;-76
2021/12/27 11:45:53;;;;;;;34.13;15.37;;;2.20;99.90;2.20;95973.00;;;;5023548;28;20428;-77
2021/12/27 11:48:50;;;;;;;26.30;16.97;;;2.20;99.90;2.20;95983.00;;;;5042241;28;20424;-77
2021/12/27 11:51:40;;;;;;;35.00;17.10;;;2.20;99.90;2.20;95966.00;;;;5041070;28;20843;-78
2021/12/27 11:54:33;;;;;;;36.47;17.20;;;2.20;99.90;2.20;95958.00;;;;5040119;28;20431;-79
2021/12/27 11:57:50;;;;;;;37.97;17.17;;;2.20;99.90;2.40;95961.00;;;;5046439;28;20424;-78
2021/12/27 12:00:40;;;;;;;32.70;15.77;;;2.30;99.90;2.40;95956.00;;;;5044032;28;21024;-77
2021/12/27 12:03:44;;;;;;;32.87;16.33;;;2.30;99.90;2.40;95944.00;;;;5044667;28;20442;-78
2021/12/27 12:06:43;;;;;;;39.17;18.30;;;2.30;99.90;2.40;95938.00;;;;5037110;28;20813;-75
2021/12/27 12:09:32;;;;;;;43.07;17.30;;;2.40;99.90;2.50;95940.00;;;;5045087;28;20489;-77
2021/12/27 12:12:21;;;;;;;36.13;17.93;;;2.40;99.90;2.50;95932.00;;;;5045544;28;20821;-76
2021/12/27 12:15:28;;;;;;;39.13;19.47;;;2.40;99.90;2.50;95927.00;;;;5044614;28;20510;-78
2021/12/27 12:18:17;;;;;;;34.47;18.07;;;2.50;99.90;2.50;95918.00;;;;5031656;28;20846;-77
2021/12/27 12:21:07;;;;;;;36.80;16.43;;;2.50;99.90;2.50;95923.00;;;;5034868;28;20869;-78
2021/12/27 12:24:20;;;;;;;31.50;15.03;;;2.40;99.90;2.50;95910.00;;;;5041689;28;20420;-77
2021/12/27 12:27:11;;;;;;;38.70;18.10;;;2.50;99.90;2.50;95904.00;;;;5042099;28;20450;-76
2021/12/27 12:29:59;;;;;;;37.30;18.17;;;2.50;99.90;2.70;95909.00;;;;5030452;28;20432;-74
2021/12/27 12:33:05;;;;;;;42.27;19.80;;;2.50;99.90;2.40;95904.00;;;;5037453;28;20439;-74
2021/12/27 12:35:57;;;;;;;39.37;19.07;;;2.50;99.90;2.50;95901.00;;;;5035274;28;20427;-74
2021/12/27 12:38:46;;;;;;;32.77;17.67;;;2.60;99.90;2.60;95892.00;;;;5032595;28;20432;-75
2021/12/27 12:41:36;;;;;;;33.87;16.40;;;2.60;99.90;2.80;95896.00;;;;5038585;28;21028;-76
2021/12/27 12:44:25;;;;;;;33.33;18.13;;;2.60;99.90;2.70;95890.00;;;;5035465;28;20445;-74
2021/12/27 12:47:15;;;;;;;32.10;18.33;;;2.70;99.90;2.60;95887.00;;;;5043667;28;20420;-75
2021/12/27 12:50:15;;;;;;;43.40;17.63;;;2.60;99.90;2.70;95889.00;;;;5029687;28;20441;-74
2021/12/27 12:53:05;;;;;;;30.57;17.30;;;2.70;99.90;2.70;95884.00;;;;5037709;28;20442;-76
2021/12/27 12:56:01;;;;;;;34.67;16.63;;;2.70;99.90;2.70;95889.00;;;;5042092;28;20423;-75
2021/12/27 12:58:51;;;;;;;29.60;17.33;;;2.70;99.90;2.70;95888.00;;;;5045743;28;20420;-75
2021/12/27 13:01:58;;;;;;;35.70;17.93;;;2.70;99.90;2.70;95877.00;;;;5050211;28;20470;-76
2021/12/27 13:04:51;;;;;;;28.13;14.77;;;2.70;99.90;2.70;95878.00;;;;5044123;28;20506;-76
2021/12/27 13:07:44;;;;;;;27.13;15.70;;;2.70;99.90;2.70;95884.00;;;;5038181;28;20494;-75
2021/12/27 13:10:36;;;;;;;24.03;15.30;;;2.70;99.90;2.70;95878.00;;;;5035820;28;20810;-74
2021/12/27 13:13:25;;;;;;;26.87;15.10;;;2.70;99.90;2.60;95883.00;;;;5028167;28;20423;-76
2021/12/27 13:16:19;;;;;;;27.67;14.80;;;2.70;99.90;2.70;95884.00;;;;5035635;28;20777;-77
2021/12/27 13:19:08;;;;;;;27.67;13.73;;;2.60;99.90;2.60;95872.00;;;;5035766;28;20435;-74
2021/12/27 13:21:57;;;;;;;25.40;13.37;;;2.60;99.90;2.60;95871.00;;;;5038252;28;20467;-74
2021/12/27 13:24:53;;;;;;;24.37;14.23;;;2.60;99.90;2.50;95880.00;;;;5041313;28;20423;-74
2021/12/27 13:27:42;;;;;;;27.17;14.50;;;2.60;99.90;2.30;95874.00;;;;5038756;28;20497;-74
2021/12/27 13:30:31;;;;;;;27.43;15.33;;;2.50;99.90;2.30;95876.00;;;;5030495;28;20439;-74
2021/12/27 13:33:24;;;;;;;21.87;14.03;;;2.50;99.90;2.10;95868.00;;;;5039604;28;20435;-74
2021/12/27 13:36:21;;;;;;;29.33;15.67;;;2.30;99.90;1.90;95877.00;;;;5041941;28;20984;-74
2021/12/27 13:39:13;;;;;;;32.50;17.07;;;2.30;99.90;2.00;95873.00;;;;5037269;28;20441;-74
2021/12/27 13:42:08;;;;;;;41.67;18.33;;;2.20;99.90;2.00;95881.00;;;;5029603;28;20479;-74
2021/12/27 13:45:09;;;;;;;30.63;17.27;;;2.20;99.90;2.00;95876.00;;;;5040108;28;20423;-74
2021/12/27 13:47:58;;;;;;;21.57;14.07;;;2.10;99.90;1.90;95870.00;;;;5044459;28;20424;-74
2021/12/27 13:50:55;;;;;;;26.60;14.07;;;2.10;99.90;1.90;95890.00;;;;5035376;28;20424;-76
2021/12/27 13:53:57;;;;;;;25.43;14.37;;;2.10;99.90;1.90;95897.00;;;;5042708;28;20428;-79
2021/12/27 13:56:47;;;;;;;22.10;13.10;;;2.00;99.90;1.90;95902.00;;;;5040448;28;20966;-77
2021/12/27 13:59:38;;;;;;;26.63;14.53;;;2.00;99.90;1.80;95900.00;;;;5055609;28;20432;-77
2021/12/27 14:02:38;;;;;;;29.23;13.90;;;2.00;99.90;1.80;95893.00;;;;5041052;28;20482;-75
2021/12/27 14:05:31;;;;;;;24.37;14.23;;;1.90;99.90;1.70;95900.00;;;;5046420;28;20435;-75
2021/12/27 14:08:21;;;;;;;26.03;15.00;;;1.90;99.90;1.80;95905.00;;;;5049512;28;20944;-75
2021/12/27 14:11:13;;;;;;;24.67;14.17;;;1.90;99.90;1.70;95897.00;;;;5047549;28;21258;-75
2021/12/27 14:14:04;;;;;;;22.97;13.80;;;1.90;99.90;1.70;95908.00;;;;5047967;28;20426;-75
2021/12/27 14:17:06;;;;;;;26.47;14.93;;;1.80;99.90;1.70;95902.00;;;;5027714;28;20451;-74
2021/12/27 14:20:07;;;;;;;27.90;14.07;;;1.80;99.90;1.70;95905.00;;;;5047798;28;20811;-76
2021/12/27 14:22:56;;;;;;;27.87;14.60;;;1.80;99.90;1.70;95907.00;;;;5042579;28;20464;-75
2021/12/27 14:25:46;;;;;;;31.63;16.27;;;1.80;99.90;1.70;95891.00;;;;5045662;28;20779;-76
2021/12/27 14:28:35;;;;;;;26.70;13.40;;;1.80;99.90;1.70;95893.00;;;;5034219;28;20418;-76
2021/12/27 14:31:26;;;;;;;28.23;15.37;;;1.80;99.90;1.70;95897.00;;;;5043775;28;20451;-74
2021/12/27 14:34:15;;;;;;;25.63;15.07;;;1.70;99.90;1.70;95888.00;;;;5043890;28;20687;-74
2021/12/27 14:37:05;;;;;;;28.67;15.73;;;1.70;99.90;1.60;95896.00;;;;5034037;28;20431;-76
2021/12/27 14:39:54;;;;;;;30.30;15.97;;;1.70;99.90;1.50;95891.00;;;;5039579;28;20498;-75
2021/12/27 14:42:44;;;;;;;25.90;14.53;;;1.70;99.90;1.30;95892.00;;;;5039681;28;21178;-75
2021/12/27 14:45:34;;;;;;;30.90;15.23;;;1.60;99.90;1.30;95891.00;;;;5042171;28;20937;-76
2021/12/27 14:48:25;;;;;;;25.37;14.97;;;1.60;99.90;1.40;95883.00;;;;5035004;28;20450;-73
2021/12/27 14:51:14;;;;;;;31.07;17.13;;;1.60;99.90;1.40;95885.00;;;;5042195;28;20976;-75
2021/12/27 14:54:03;;;;;;;46.13;24.17;;;1.50;99.90;1.40;95871.00;;;;5045875;28;20427;-78
2021/12/27 14:56:52;;;;;;;32.07;18.53;;;1.60;99.90;1.40;95886.00;;;;5046346;28;20435;-75
2021/12/27 14:59:42;;;;;;;57.03;28.73;;;1.60;99.90;1.40;95888.00;;;;5043506;28;20438;-74
2021/12/27 15:02:46;;;;;;;128.10;59.50;;;1.60;99.90;1.40;95891.00;;;;5037213;28;21005;-76
2021/12/27 15:05:35;;;;;;;77.83;36.33;;;1.50;99.90;1.40;95889.00;;;;5040970;28;21383;-76
2021/12/27 15:08:26;;;;;;;36.70;20.07;;;1.50;99.90;1.40;95885.00;;;;5044914;28;20437;-75
2021/12/27 15:11:15;;;;;;;31.40;18.67;;;1.50;99.90;1.40;95884.00;;;;5045234;28;20446;-77
2021/12/27 15:14:04;;;;;;;35.43;18.50;;;1.50;99.90;1.40;95885.00;;;;5042643;28;20436;-76
2021/12/27 15:16:54;;;;;;;23.93;15.73;;;1.50;99.90;1.40;95875.00;;;;5044629;28;20423;-76
2021/12/27 15:19:44;;;;;;;34.20;18.37;;;1.50;99.90;1.30;95877.00;;;;5042305;28;20817;-76
2021/12/27 15:22:33;;;;;;;26.17;16.00;;;1.50;99.90;1.40;95878.00;;;;5043388;28;20455;-76
2021/12/27 15:25:23;;;;;;;28.97;14.70;;;1.50;99.90;1.40;95875.00;;;;5032514;28;20435;-76
2021/12/27 15:28:13;;;;;;;26.60;16.60;;;1.50;99.90;1.40;95875.00;;;;5043708;28;20424;-76
2021/12/27 15:31:02;;;;;;;25.53;15.73;;;1.50;99.90;1.40;95884.00;;;;5040497;28;20518;-76
2021/12/27 15:33:53;;;;;;;26.53;15.87;;;1.40;99.90;1.40;95884.00;;;;5044807;28;20510;-74
2021/12/27 15:36:42;;;;;;;29.80;16.13;;;1.50;99.90;1.40;95879.00;;;;5033825;28;20420;-75
2021/12/27 15:39:31;;;;;;;24.47;14.90;;;1.50;99.90;1.40;95878.00;;;;5039365;28;20957;-75
2021/12/27 15:42:20;;;;;;;24.43;14.07;;;1.50;99.90;1.40;95881.00;;;;4988752;28;1317022;-76
2021/12/27 15:45:09;;;;;;;26.83;15.23;;;1.40;99.90;1.40;95879.00;;;;5043707;28;20204;-75
2021/12/27 15:47:57;;;;;;;27.83;14.97;;;1.50;99.90;1.40;95877.00;;;;5043774;28;20477;-75
2021/12/27 15:50:48;;;;;;;27.10;15.13;;;1.50;99.90;1.40;95881.00;;;;5039793;28;20424;-76
2021/12/27 15:53:40;;;;;;;25.43;15.73;;;1.50;99.90;1.40;95876.00;;;;5034652;28;20423;-74
2021/12/27 15:56:29;;;;;;;25.77;14.97;;;1.50;99.90;1.40;95884.00;;;;5046182;28;20439;-74
2021/12/27 15:59:18;;;;;;;23.17;15.73;;;1.50;99.90;1.40;95879.00;;;;5039776;28;20430;-75
2021/12/27 16:02:07;;;;;;;26.03;14.73;;;1.50;99.90;1.40;95871.00;;;;5044429;28;20610;-75
2021/12/27 16:04:56;;;;;;;29.93;16.83;;;1.50;99.90;1.40;95881.00;;;;5045495;28;20436;-74
2021/12/27 16:07:51;;;;;;;25.30;15.83;;;1.50;99.90;1.40;95878.00;;;;5046857;28;20415;-75
2021/12/27 16:10:40;;;;;;;31.53;18.23;;;2.80;99.90;1.40;95877.00;;;;5045460;28;20426;-74
2021/12/27 16:13:31;;;;;;;29.63;16.27;;;1.40;99.90;1.40;95875.00;;;;5046451;28;20442;-75
2021/12/27 16:16:24;;;;;;;28.53;15.10;;;1.50;99.90;1.40;95874.00;;;;5042020;28;20430;-74
2021/12/27 16:19:12;;;;;;;34.47;18.93;;;1.50;99.90;1.40;95887.00;;;;5037571;28;20420;-75
2021/12/27 16:22:02;;;;;;;34.67;16.63;;;1.50;99.90;1.40;95886.00;;;;5043730;28;20475;-74
2021/12/27 16:24:52;;;;;;;36.00;18.30;;;1.50;99.90;1.40;95883.00;;;;5045183;28;20966;-75
2021/12/27 16:27:44;;;;;;;37.07;19.30;;;1.50;99.90;1.40;95883.00;;;;5045500;28;20424;-74
2021/12/27 16:30:33;;;;;;;32.63;17.57;;;1.50;99.90;1.30;95879.00;;;;5037602;28;20471;-73
2021/12/27 16:33:22;;;;;;;37.87;18.83;;;1.50;99.90;1.30;95881.00;;;;5038503;28;20447;-75
2021/12/27 16:36:10;;;;;;;36.63;17.33;;;1.50;99.90;1.30;95872.00;;;;5039796;28;20442;-75
2021/12/27 16:38:59;;;;;;;36.47;18.00;;;1.40;99.90;1.30;95883.00;;;;5045767;28;20542;-73
2021/12/27 16:41:49;;;;;;;34.63;19.10;;;1.40;99.90;1.30;95888.00;;;;5044093;28;20465;-76
2021/12/27 16:44:38;;;;;;;29.60;17.03;;;1.50;99.90;1.30;95889.00;;;;5040788;28;20446;-74
2021/12/27 16:47:28;;;;;;;33.73;16.93;;;1.40;99.90;1.40;95893.00;;;;5044856;28;20424;-74
2021/12/27 16:50:20;;;;;;;31.60;16.07;;;1.40;99.90;1.40;95888.00;;;;5044294;28;20450;-73
2021/12/27 16:53:09;;;;;;;29.70;16.80;;;1.40;99.90;1.40;95892.00;;;;5044416;28;20431;-76
2021/12/27 16:55:58;;;;;;;30.83;16.67;;;1.50;99.90;1.30;95892.00;;;;5044515;28;20427;-74
2021/12/27 16:58:48;;;;;;;33.00;17.53;;;1.40;99.90;1.30;95888.00;;;;5044445;28;20458;-74
2021/12/27 17:01:37;;;;;;;28.37;15.50;;;1.40;99.90;1.30;95887.00;;;;5043492;28;20451;-77
2021/12/27 17:04:27;;;;;;;40.00;18.10;;;1.50;99.90;1.30;95882.00;;;;5030037;28;20447;-75
2021/12/27 17:07:16;;;;;;;29.67;15.73;;;1.40;99.90;1.30;95885.00;;;;5016519;28;20809;-73
2021/12/27 17:10:07;;;;;;;29.20;15.40;;;1.50;99.90;1.30;95879.00;;;;5005705;28;20439;-73
2021/12/27 17:12:58;;;;;;;35.40;17.67;;;1.50;99.90;1.30;95878.00;;;;5014041;28;20452;-74
2021/12/27 17:15:49;;;;;;;29.57;17.50;;;2.60;99.90;1.30;95880.00;;;;5035402;28;20439;-74
2021/12/27 17:18:37;;;;;;;29.40;16.40;;;1.40;99.90;1.30;95874.00;;;;5039111;28;20419;-74
2021/12/27 17:21:26;;;;;;;29.30;15.40;;;1.40;99.90;1.30;95884.00;;;;5036199;28;20458;-74
2021/12/27 17:24:19;;;;;;;29.80;16.17;;;1.40;99.90;1.30;95880.00;;;;5039863;28;20485;-74
2021/12/27 17:27:10;;;;;;;31.00;16.93;;;1.50;99.90;1.30;95878.00;;;;5043738;28;20450;-76
2021/12/27 17:29:59;;;;;;;32.37;16.70;;;1.50;99.90;1.30;95871.00;;;;5038764;28;20439;-75
2021/12/27 17:32:49;;;;;;;25.13;13.87;;;1.40;99.90;1.30;95873.00;;;;5038411;28;20454;-75
2021/12/27 17:35:39;;;;;;;33.00;17.60;;;1.40;99.90;1.30;95878.00;;;;5044631;28;20408;-74
2021/12/27 17:38:29;;;;;;;30.47;16.30;;;1.30;99.90;1.30;95868.00;;;;5039216;28;20412;-76
2021/12/27 17:41:18;;;;;;;34.00;17.20;;;1.40;99.90;1.30;95855.00;;;;5021364;28;20532;-74
2021/12/27 17:44:08;;;;;;;30.90;16.87;;;1.40;99.90;1.30;95854.00;;;;5034418;28;20454;-74
2021/12/27 17:46:56;;;;;;;33.73;16.67;;;1.40;99.90;1.30;95851.00;;;;5023955;28;21027;-75
2021/12/27 17:49:47;;;;;;;36.97;16.13;;;1.40;99.90;1.30;95851.00;;;;5024875;28;20434;-75
2021/12/27 17:52:37;;;;;;;28.93;16.23;;;1.30;99.90;1.30;95858.00;;;;5029027;28;20999;-75
2021/12/27 17:55:27;;;;;;;28.87;17.77;;;1.40;99.90;1.30;95858.00;;;;5034520;28;20438;-75
2021/12/27 17:58:16;;;;;;;31.23;16.47;;;1.40;99.90;1.20;95856.00;;;;5037033;28;20435;-74
2021/12/27 18:01:30;;;;;;;32.17;16.50;;;1.40;99.90;1.20;95858.00;;;;5041669;28;20857;-74
2021/12/27 18:04:43;;;;;;;31.10;16.77;;;1.40;99.90;1.20;95857.00;;;;5041454;28;21040;-74
2021/12/27 18:07:35;;;;;;;32.80;18.07;;;1.40;99.90;1.10;95869.00;;;;5033097;28;20434;-73
2021/12/27 18:10:24;;;;;;;32.63;17.47;;;1.30;99.90;1.20;95867.00;;;;5044428;28;20831;-75
2021/12/27 18:13:13;;;;;;;31.60;16.90;;;1.30;99.90;1.20;95863.00;;;;5044139;28;20945;-75
2021/12/27 18:16:02;;;;;;;38.43;17.63;;;1.30;99.90;1.20;95868.00;;;;5039096;28;20800;-74
2021/12/27 18:19:15;;;;;;;36.60;17.47;;;1.30;99.90;1.10;95873.00;;;;5043466;28;20427;-75
2021/12/27 18:22:28;;;;;;;34.27;16.40;;;1.30;99.90;1.00;95865.00;;;;5044160;28;20430;-74
2021/12/27 18:25:21;;;;;;;30.07;16.13;;;1.30;99.90;1.00;95873.00;;;;5042876;28;20521;-75
2021/12/27 18:28:10;;;;;;;33.80;17.20;;;1.30;99.90;1.10;95864.00;;;;5043011;28;20428;-75
2021/12/27 18:30:59;;;;;;;30.10;17.43;;;1.30;99.90;1.10;95864.00;;;;5040466;28;20455;-75
2021/12/27 18:33:48;;;;;;;30.30;17.07;;;1.30;99.90;1.10;95865.00;;;;5032034;28;20432;-75
2021/12/27 18:36:37;;;;;;;31.70;17.30;;;1.20;99.90;1.10;95868.00;;;;5032587;28;20423;-75
2021/12/27 18:39:26;;;;;;;30.97;16.77;;;1.20;99.90;1.20;95867.00;;;;5042428;28;20427;-75
2021/12/27 18:42:32;;;;;;;34.00;17.33;;;1.30;99.90;1.20;95869.00;;;;5043550;28;21059;-75
2021/12/27 18:45:22;;;;;;;40.30;18.37;;;1.30;99.90;1.20;95863.00;;;;5040166;28;20426;-75
2021/12/27 18:48:11;;;;;;;33.23;17.60;;;1.30;99.90;1.20;95860.00;;;;5047989;28;20427;-74
2021/12/27 18:51:00;;;;;;;31.73;16.90;;;1.30;99.90;1.20;95848.00;;;;5046336;28;20466;-75
2021/12/27 18:53:48;;;;;;;33.77;16.20;;;1.30;99.90;1.20;95862.00;;;;5046661;28;21045;-74
2021/12/27 18:56:38;;;;;;;36.70;18.53;;;1.30;99.90;1.20;95860.00;;;;5046173;28;20801;-75
2021/12/27 18:59:28;;;;;;;30.03;16.97;;;1.30;99.90;1.20;95864.00;;;;5047027;28;20956;-74
2021/12/27 19:02:17;;;;;;;37.40;18.60;;;1.30;99.90;1.20;95856.00;;;;5046076;28;20459;-73
2021/12/27 19:05:07;;;;;;;42.33;18.30;;;1.40;99.90;1.20;95864.00;;;;5045437;28;20474;-75
2021/12/27 19:07:56;;;;;;;36.93;21.67;;;1.30;99.90;1.20;95862.00;;;;5047623;28;20431;-75
2021/12/27 19:10:45;;;;;;;39.07;19.27;;;1.30;99.90;1.20;95858.00;;;;5047826;28;20420;-75
2021/12/27 19:13:34;;;;;;;38.53;18.50;;;1.30;99.90;1.20;95861.00;;;;5045303;28;20436;-76
2021/12/27 19:16:25;;;;;;;42.10;21.80;;;1.30;99.90;1.20;95852.00;;;;5029500;28;20432;-74
2021/12/27 19:19:13;;;;;;;31.67;18.67;;;1.40;99.90;1.20;95871.00;;;;5046673;28;20446;-75
2021/12/27 19:22:03;;;;;;;43.87;23.03;;;1.30;99.90;1.20;95859.00;;;;5051281;28;20497;-75
2021/12/27 19:24:52;;;;;;;39.57;20.90;;;1.40;99.90;1.20;95862.00;;;;5045688;28;20474;-74
2021/12/27 19:27:41;;;;;;;41.00;22.43;;;1.40;99.90;1.20;95857.00;;;;5046565;28;20436;-75
2021/12/27 19:30:30;;;;;;;41.50;20.50;;;1.40;99.90;1.20;95856.00;;;;5044998;28;20953;-75
2021/12/27 19:33:20;;;;;;;40.80;22.30;;;1.40;99.90;1.30;95854.00;;;;5044889;28;20450;-75
2021/12/27 19:36:09;;;;;;;48.90;23.20;;;1.40;99.90;1.30;95853.00;;;;5045835;28;20435;-75
2021/12/27 19:39:00;;;;;;;38.80;21.43;;;1.40;99.90;1.30;95853.00;;;;5046803;28;20430;-75
2021/12/27 19:41:50;;;;;;;43.20;21.87;;;1.40;99.90;1.20;95840.00;;;;5033557;28;20469;-75
2021/12/27 19:44:38;;;;;;;47.40;21.50;;;1.40;99.90;1.20;95844.00;;;;5034554;28;20470;-74
2021/12/27 19:47:27;;;;;;;40.90;22.37;;;1.40;99.90;1.20;95840.00;;;;5042666;28;20979;-74
2021/12/27 19:50:20;;;;;;;37.43;20.03;;;1.40;99.90;1.20;95847.00;;;;5045019;28;21177;-73
2021/12/27 19:53:09;;;;;;;37.23;18.70;;;1.40;99.90;1.10;95839.00;;;;5047594;28;20420;-71
2021/12/27 19:55:58;;;;;;;41.10;21.27;;;1.40;99.90;1.20;95842.00;;;;5041505;28;20439;-75
2021/12/27 19:58:47;;;;;;;34.07;19.23;;;1.30;99.90;1.20;95842.00;;;;5047477;28;20434;-75
2021/12/27 20:01:36;;;;;;;38.23;19.87;;;1.30;99.90;1.30;95854.00;;;;5042810;28;20447;-74
2021/12/27 20:04:25;;;;;;;32.37;20.43;;;1.30;99.90;1.20;95860.00;;;;5039661;28;20467;-74
2021/12/27 20:07:16;;;;;;;40.67;20.83;;;1.40;99.90;1.30;95867.00;;;;5043116;28;20442;-75
2021/12/27 20:10:08;;;;;;;31.60;18.67;;;1.40;99.90;1.20;95862.00;;;;5044374;28;21103;-76
2021/12/27 20:13:00;;;;;;;29.53;16.40;;;1.30;99.90;1.30;95861.00;;;;5045382;28;20435;-73
2021/12/27 20:15:49;;;;;;;35.63;18.80;;;1.40;99.90;1.30;95857.00;;;;5038819;28;20428;-78
2021/12/27 20:18:38;;;;;;;32.47;17.40;;;1.30;99.90;1.20;95870.00;;;;5041996;28;20431;-74
2021/12/27 20:21:27;;;;;;;28.33;16.70;;;1.40;99.90;1.20;95872.00;;;;5039176;28;20449;-74
2021/12/27 20:24:17;;;;;;;30.03;16.73;;;1.30;99.90;1.30;95861.00;;;;5039965;28;21021;-73
2021/12/27 20:27:08;;;;;;;24.93;14.93;;;1.30;99.90;1.20;95861.00;;;;5044611;28;20450;-76
2021/12/27 20:29:57;;;;;;;28.43;17.70;;;1.30;99.90;1.20;95864.00;;;;5042936;28;20428;-75
2021/12/27 20:32:46;;;;;;;25.97;16.03;;;1.40;99.90;1.20;95866.00;;;;5043637;28;20458;-72
2021/12/27 20:35:37;;;;;;;25.07;16.40;;;1.30;99.90;1.20;95866.00;;;;5031836;28;20444;-74
2021/12/27 20:38:25;;;;;;;31.03;16.30;;;1.30;99.90;1.20;95864.00;;;;5033074;28;20966;-76
2021/12/27 20:41:16;;;;;;;28.93;16.77;;;1.30;99.90;1.20;95866.00;;;;5028867;28;20475;-75
2021/12/27 20:44:05;;;;;;;31.47;17.37;;;1.40;99.90;1.20;95866.00;;;;5035604;28;20463;-73
2021/12/27 20:46:55;;;;;;;33.37;16.57;;;1.30;99.90;1.20;95856.00;;;;5037986;28;20546;-74
2021/12/27 20:49:44;;;;;;;32.97;16.23;;;1.30;99.90;1.20;95857.00;;;;5026822;28;20831;-73
2021/12/27 20:52:33;;;;;;;28.57;16.13;;;1.30;99.90;1.20;95856.00;;;;5027296;28;20947;-74
2021/12/27 20:55:22;;;;;;;25.07;15.50;;;1.30;99.90;1.20;95859.00;;;;5030928;28;20458;-75
2021/12/27 20:58:13;;;;;;;26.10;15.93;;;1.30;99.90;1.10;95859.00;;;;5028305;28;20495;-72
2021/12/27 21:01:02;;;;;;;23.10;16.67;;;1.30;99.90;1.20;95861.00;;;;5030881;28;21028;-74
2021/12/27 21:03:51;;;;;;;30.27;16.90;;;1.30;99.90;1.20;95851.00;;;;5017056;28;20562;-74
2021/12/27 21:06:40;;;;;;;29.23;17.17;;;1.30;99.90;1.20;95851.00;;;;5023896;28;20436;-75
2021/12/27 21:09:29;;;;;;;30.37;16.70;;;1.30;99.90;1.20;95852.00;;;;5025043;28;20658;-74
2021/12/27 21:12:18;;;;;;;26.60;16.63;;;1.30;99.90;1.10;95844.00;;;;5028319;28;20460;-75
2021/12/27 21:15:11;;;;;;;32.37;17.67;;;1.30;99.90;1.10;95846.00;;;;5028266;28;20446;-74
2021/12/27 21:18:00;;;;;;;26.23;15.93;;;1.30;99.90;1.10;95846.00;;;;5034853;28;21002;-74
2021/12/27 21:20:49;;;;;;;31.27;16.43;;;1.30;99.90;1.10;95844.00;;;;5028174;28;20454;-75
2021/12/27 21:23:39;;;;;;;29.43;15.20;;;1.30;99.90;1.10;95854.00;;;;5025104;28;20435;-75
2021/12/27 21:26:28;;;;;;;37.37;18.53;;;1.20;99.90;1.00;95858.00;;;;5025322;28;20959;-75
2021/12/27 21:29:18;;;;;;;27.80;16.13;;;1.20;99.90;1.00;95846.00;;;;5028691;28;20459;-74
2021/12/27 21:32:08;;;;;;;37.43;19.23;;;1.20;99.90;1.00;95850.00;;;;5030006;28;20475;-74
2021/12/27 21:34:59;;;;;;;26.87;17.33;;;1.30;99.90;1.00;95849.00;;;;5023999;28;20445;-74
2021/12/27 21:37:50;;;;;;;33.00;19.60;;;1.20;99.90;1.10;95844.00;;;;5023311;28;20432;-74
2021/12/27 21:40:39;;;;;;;38.17;19.37;;;1.20;99.90;1.00;95837.00;;;;5032982;28;20458;-75
2021/12/27 21:43:29;;;;;;;30.97;17.33;;;1.20;99.90;1.00;95848.00;;;;5031987;28;20440;-74
2021/12/27 21:46:17;;;;;;;29.60;17.30;;;1.20;99.90;1.10;95841.00;;;;5040294;28;20459;-74
2021/12/27 21:49:09;;;;;;;25.90;15.83;;;1.20;99.90;1.10;95833.00;;;;5042950;28;20454;-74
2021/12/27 21:51:59;;;;;;;31.30;19.03;;;1.20;99.90;1.10;95838.00;;;;5044685;28;20451;-74
2021/12/27 21:54:48;;;;;;;31.93;17.70;;;1.20;99.90;1.00;95840.00;;;;5038949;28;20446;-74
2021/12/27 21:57:37;;;;;;;29.33;18.53;;;1.20;99.90;1.10;95831.00;;;;5036628;28;20813;-74
2021/12/27 22:00:30;;;;;;;31.57;17.70;;;1.20;99.90;1.10;95834.00;;;;5035278;28;21164;-75
2021/12/27 22:03:19;;;;;;;32.60;16.57;;;1.20;99.90;1.10;95829.00;;;;5039873;28;20428;-75
2021/12/27 22:06:09;;;;;;;29.03;15.93;;;1.20;99.90;1.00;95836.00;;;;5042269;28;20459;-74
2021/12/27 22:08:58;;;;;;;26.40;15.07;;;1.20;99.90;1.00;95846.00;;;;5041374;28;20419;-74
2021/12/27 22:11:47;;;;;;;35.70;19.03;;;1.20;99.90;1.10;95842.00;;;;5040447;28;20455;-74
2021/12/27 22:14:51;;;;;;;28.37;16.17;;;1.20;99.90;1.10;95837.00;;;;5040712;28;20435;-74